createdAt,value
2022-10-17T00:00:12.453Z,9.63
2022-10-17T00:03:16.822Z,9.62
2022-10-17T00:06:20.055Z,9.59
2022-10-17T00:09:23.117Z,9.57
2022-10-17T00:12:26.489Z,9.57
2022-10-17T00:15:31.286Z,9.50
2022-10-17T00:18:34.416Z,9.41
2022-10-17T00:21:38.779Z,9.38
2022-10-17T00:24:42.452Z,9.38
2022-10-17T00:27:46.591Z,9.39
2022-10-17T00:31:17.920Z,9.32
2022-10-17T00:34:22.878Z,9.29
2022-10-17T00:37:27.929Z,9.25
2022-10-17T00:40:31.127Z,9.28
2022-10-17T00:43:59.651Z,9.30
2022-10-17T00:47:06.115Z,9.31
2022-10-17T00:50:13.143Z,9.34
2022-10-17T00:53:18.369Z,9.35
2022-10-17T00:56:21.504Z,9.32
2022-10-17T00:59:25.978Z,9.31
2022-10-17T01:02:30.406Z,9.33
2022-10-17T01:05:35.741Z,9.28
2022-10-17T01:08:39.706Z,9.24
2022-10-17T01:12:13.640Z,9.16
2022-10-17T01:15:32.736Z,9.14
2022-10-17T01:19:11.705Z,9.08
2022-10-17T01:22:27.972Z,9.08
2022-10-17T01:25:49.508Z,9.04
2022-10-17T01:29:11.761Z,9.04
2022-10-17T01:32:36.592Z,9.02
2022-10-17T01:35:48.069Z,9.03
2022-10-17T01:39:01.017Z,9.01
2022-10-17T01:42:13.240Z,9.02
2022-10-17T01:45:25.805Z,9.03
2022-10-17T01:48:35.724Z,9.03
2022-10-17T01:51:43.610Z,8.98
2022-10-17T01:54:50.855Z,9.01
2022-10-17T01:57:58.394Z,9.03
2022-10-17T02:01:05.687Z,8.97
2022-10-17T02:04:11.766Z,8.89
2022-10-17T02:07:14.915Z,8.86
2022-10-17T02:10:43.423Z,8.78
2022-10-17T02:13:53.763Z,8.83
2022-10-17T02:17:11.845Z,8.82
2022-10-17T02:20:38.279Z,8.83
2022-10-17T02:23:52.382Z,8.86
2022-10-17T02:27:31.531Z,8.83
2022-10-17T02:30:44.682Z,8.86
2022-10-17T02:34:03.528Z,8.82
2022-10-17T02:37:15.699Z,8.71
2022-10-17T02:40:24.067Z,8.68
2022-10-17T02:43:28.740Z,8.69
2022-10-17T02:46:37.155Z,8.65
2022-10-17T02:49:47.415Z,8.66
2022-10-17T02:53:01.273Z,8.66
2022-10-17T02:56:14.475Z,8.69
2022-10-17T02:59:21.771Z,8.63
2022-10-17T03:02:25.729Z,8.63
2022-10-17T03:05:30.866Z,8.63
2022-10-17T03:08:35.339Z,8.66
2022-10-17T03:11:40.469Z,8.67
2022-10-17T03:14:44.563Z,8.66
2022-10-17T03:17:49.736Z,8.64
2022-10-17T03:20:52.756Z,8.63
2022-10-17T03:23:56.805Z,8.66
2022-10-17T03:27:01.166Z,8.60
2022-10-17T03:30:07.262Z,8.59
2022-10-17T03:33:12.538Z,8.57
2022-10-17T03:36:18.736Z,8.55
2022-10-17T03:39:22.355Z,8.53
2022-10-17T03:42:25.592Z,8.53
2022-10-17T03:45:28.868Z,8.49
2022-10-17T03:48:32.573Z,8.49
2022-10-17T03:51:36.123Z,8.47
2022-10-17T03:54:39.720Z,8.48
2022-10-17T03:57:45.422Z,8.50
2022-10-17T04:00:49.401Z,8.52
2022-10-17T04:03:55.015Z,8.52
2022-10-17T04:06:57.748Z,8.52
2022-10-17T04:10:01.954Z,8.53
2022-10-17T04:13:06.922Z,8.52
2022-10-17T04:16:14.306Z,8.55
2022-10-17T04:19:40.032Z,8.54
2022-10-17T04:22:43.763Z,8.54
2022-10-17T04:25:48.726Z,8.49
2022-10-17T04:28:59.193Z,8.50
2022-10-17T04:32:02.521Z,8.47
2022-10-17T04:35:10.252Z,8.45
2022-10-17T04:38:19.528Z,8.44
2022-10-17T04:41:26.769Z,8.41
2022-10-17T04:44:34.228Z,8.41
2022-10-17T04:47:37.687Z,8.38
2022-10-17T04:50:42.706Z,8.35
2022-10-17T04:53:55.050Z,8.31
2022-10-17T04:56:58.426Z,8.30
2022-10-17T05:00:03.350Z,8.32
2022-10-17T05:03:15.271Z,8.30
2022-10-17T05:06:25.272Z,8.22
2022-10-17T05:09:31.920Z,8.22
2022-10-17T05:12:35.522Z,8.20
2022-10-17T05:15:47.476Z,8.21
2022-10-17T05:18:57.781Z,8.25
2022-10-17T05:22:08.276Z,8.27
2022-10-17T05:25:14.326Z,8.32
2022-10-17T05:28:17.784Z,8.47
2022-10-17T05:31:22.240Z,8.84
2022-10-17T05:34:25.372Z,9.02
2022-10-17T05:37:30.594Z,9.02
2022-10-17T05:40:39.479Z,9.02
2022-10-17T05:43:44.841Z,9.10
2022-10-17T05:46:56.298Z,9.24
2022-10-17T05:50:00.179Z,9.48
2022-10-17T05:53:06.450Z,9.76
2022-10-17T05:56:15.255Z,10.30
2022-10-17T05:59:18.346Z,11.03
2022-10-17T06:02:22.823Z,11.43
2022-10-17T06:05:26.269Z,12.15
2022-10-17T06:08:29.670Z,12.55
2022-10-17T06:11:33.136Z,12.84
2022-10-17T06:14:40.396Z,13.42
2022-10-17T06:17:44.271Z,13.68
2022-10-17T06:20:48.062Z,14.38
2022-10-17T06:23:54.432Z,14.98
2022-10-17T06:26:58.091Z,15.32
2022-10-17T06:30:04.242Z,15.74
2022-10-17T06:34:26.226Z,16.17
2022-10-17T06:38:50.461Z,15.46
2022-10-17T06:42:11.578Z,15.93
2022-10-17T06:45:15.124Z,16.41
2022-10-17T06:48:35.117Z,17.00
2022-10-17T06:51:42.270Z,16.67
2022-10-17T06:54:50.201Z,16.79
2022-10-17T06:58:06.282Z,16.58
2022-10-17T07:01:21.503Z,17.12
2022-10-17T07:04:39.449Z,17.32
2022-10-17T07:09:11.011Z,16.97
2022-10-17T07:16:39.349Z,17.69
2022-10-17T07:19:44.324Z,17.99
2022-10-17T07:22:47.543Z,17.69
2022-10-17T07:25:51.735Z,17.17
2022-10-17T07:29:02.002Z,17.45
2022-10-17T07:32:08.762Z,17.24
2022-10-17T07:35:14.254Z,17.53
2022-10-17T07:38:19.075Z,17.87
2022-10-17T07:41:23.249Z,17.91
2022-10-17T07:44:29.521Z,18.17
2022-10-17T07:47:39.621Z,18.79
2022-10-17T07:50:46.213Z,18.03
2022-10-17T07:53:50.475Z,19.56
2022-10-17T07:56:56.664Z,19.42
2022-10-17T08:00:07.731Z,18.82
2022-10-17T08:03:22.822Z,18.63
2022-10-17T08:06:28.729Z,18.73
2022-10-17T08:09:33.281Z,19.55
2022-10-17T08:12:38.333Z,19.93
2022-10-17T08:15:42.906Z,19.52
2022-10-17T08:18:46.959Z,19.20
2022-10-17T08:21:54.523Z,20.07
2022-10-17T08:25:10.927Z,20.46
2022-10-17T08:28:41.808Z,18.83
2022-10-17T08:31:47.793Z,20.04
2022-10-17T08:38:51.648Z,20.32
2022-10-17T08:41:56.184Z,19.19
2022-10-17T08:45:08.388Z,18.98
2022-10-17T08:48:16.635Z,20.05
2022-10-17T08:51:30.259Z,19.80
2022-10-17T08:54:48.932Z,19.85
2022-10-17T08:57:53.752Z,19.42
2022-10-17T09:01:03.693Z,18.87
2022-10-17T09:04:28.707Z,18.84
2022-10-17T09:07:57.596Z,19.19
2022-10-17T09:11:16.988Z,19.06
2022-10-17T09:14:43.465Z,19.70
2022-10-17T09:18:12.280Z,19.81
2022-10-17T09:21:23.539Z,20.10
2022-10-17T09:24:36.913Z,19.68
2022-10-17T09:27:46.268Z,19.50
2022-10-17T09:31:07.958Z,19.82
2022-10-17T09:34:13.484Z,19.18
2022-10-17T09:37:17.770Z,20.04
2022-10-17T09:40:31.876Z,20.02
2022-10-17T09:43:34.880Z,19.86
2022-10-17T09:46:39.048Z,19.92
2022-10-17T09:49:46.650Z,19.97
2022-10-17T09:52:50.901Z,20.14
2022-10-17T09:55:59.478Z,20.17
2022-10-17T09:59:40.064Z,20.43
2022-10-17T10:02:43.565Z,20.43
2022-10-17T10:05:59.988Z,20.29
2022-10-17T10:09:05.584Z,21.54
2022-10-17T10:12:22.643Z,21.04
2022-10-17T10:15:38.877Z,20.21
2022-10-17T10:18:43.319Z,20.47
2022-10-17T10:21:59.820Z,21.00
2022-10-17T10:25:18.442Z,21.86
2022-10-17T10:28:28.352Z,21.07
2022-10-17T10:31:40.381Z,20.81
2022-10-17T10:35:04.283Z,21.02
2022-10-17T10:38:18.010Z,20.73
2022-10-17T10:41:21.814Z,20.40
2022-10-17T10:44:30.346Z,20.41
2022-10-17T10:47:35.658Z,20.53
2022-10-17T10:50:45.601Z,20.71
2022-10-17T10:54:05.232Z,20.70
2022-10-17T10:57:20.971Z,20.90
2022-10-17T11:00:28.116Z,20.95
2022-10-17T11:03:42.015Z,20.75
2022-10-17T11:06:51.055Z,20.71
2022-10-17T11:09:55.458Z,20.68
2022-10-17T11:13:30.816Z,20.62
2022-10-17T11:16:50.358Z,20.60
2022-10-17T11:20:20.479Z,20.62
2022-10-17T11:23:48.597Z,20.65
2022-10-17T11:27:12.292Z,20.71
2022-10-17T11:30:18.354Z,20.65
2022-10-17T11:33:29.212Z,20.60
2022-10-17T11:36:36.981Z,20.69
2022-10-17T11:40:17.209Z,20.60
2022-10-17T11:43:38.373Z,20.63
2022-10-17T11:46:46.384Z,20.57
2022-10-17T11:49:57.489Z,20.63
2022-10-17T11:53:17.577Z,20.77
2022-10-17T11:56:42.772Z,20.60
2022-10-17T12:00:21.301Z,20.52
2022-10-17T12:03:57.050Z,20.42
2022-10-17T12:07:26.367Z,20.47
2022-10-17T12:10:53.912Z,20.45
2022-10-17T12:13:58.947Z,20.46
2022-10-17T12:17:43.676Z,20.38
2022-10-17T12:21:00.306Z,20.23
2022-10-17T12:24:05.772Z,20.18
2022-10-17T12:27:30.359Z,20.13
2022-10-17T12:30:49.101Z,20.05
2022-10-17T12:34:09.544Z,20.07
2022-10-17T12:38:24.443Z,20.03
2022-10-17T12:41:45.326Z,20.08
2022-10-17T12:44:52.381Z,19.94
2022-10-17T12:47:56.324Z,19.91
2022-10-17T12:51:34.862Z,19.91
2022-10-17T15:36:43.292Z,17.35
2022-10-17T15:39:58.102Z,17.17
2022-10-17T15:43:04.060Z,17.01
2022-10-17T15:46:23.091Z,16.87
2022-10-17T15:49:28.087Z,16.69
2022-10-17T15:52:37.082Z,16.54
2022-10-17T15:55:49.207Z,16.39
2022-10-17T15:59:04.061Z,16.26
2022-10-17T16:02:19.103Z,16.12
2022-10-17T16:05:28.193Z,15.97
2022-10-17T16:08:33.183Z,15.87
2022-10-17T16:11:42.405Z,15.72
2022-10-17T16:14:50.081Z,15.62
2022-10-17T16:18:01.634Z,15.49
2022-10-17T16:21:18.096Z,15.38
2022-10-17T16:24:25.295Z,15.28
2022-10-17T16:27:38.273Z,15.19
2022-10-17T16:30:56.255Z,15.08
2022-10-17T16:34:06.728Z,15.00
2022-10-17T16:37:11.142Z,14.91
2022-10-17T16:40:24.954Z,14.83
2022-10-17T16:43:38.142Z,14.73
2022-10-17T16:47:19.094Z,14.64
2022-10-17T16:50:24.685Z,14.53
2022-10-17T16:53:44.082Z,14.45
2022-10-17T16:56:58.188Z,14.38
2022-10-17T17:00:04.013Z,14.33
2022-10-17T17:03:23.088Z,14.26
2022-10-17T17:06:29.821Z,14.20
2022-10-17T17:09:35.305Z,14.13
2022-10-17T17:12:43.895Z,14.08
2022-10-17T17:15:54.056Z,14.00
2022-10-17T17:19:01.299Z,13.96
2022-10-17T17:22:15.107Z,13.89
2022-10-17T17:25:26.980Z,13.85
2022-10-17T17:28:37.385Z,13.84
2022-10-17T17:31:46.185Z,13.82
2022-10-17T17:34:51.620Z,13.78
2022-10-17T17:37:57.368Z,13.72
2022-10-17T17:41:10.323Z,13.70
2022-10-17T17:44:16.778Z,13.63
2022-10-17T17:47:25.073Z,13.58
2022-10-17T17:50:37.509Z,13.50
2022-10-17T17:53:57.915Z,13.43
2022-10-17T17:57:02.561Z,13.36
2022-10-17T18:00:14.225Z,13.31
2022-10-17T18:03:40.312Z,13.25
2022-10-17T18:07:02.081Z,13.17
2022-10-17T18:10:21.993Z,13.13
2022-10-17T18:13:45.299Z,13.08
2022-10-17T18:17:10.269Z,13.01
2022-10-17T18:20:16.411Z,12.93
2022-10-17T18:23:26.653Z,12.88
2022-10-17T18:26:38.163Z,12.85
2022-10-17T18:29:48.091Z,12.78
2022-10-17T18:33:08.045Z,12.75
2022-10-17T18:36:13.785Z,12.70
2022-10-17T18:39:25.133Z,12.68
2022-10-17T18:42:41.124Z,12.64
2022-10-17T18:45:57.170Z,12.61
2022-10-17T18:49:19.194Z,12.57
2022-10-17T18:52:22.824Z,12.52
2022-10-17T18:55:32.012Z,12.47
2022-10-17T18:58:50.554Z,12.44
2022-10-17T19:01:58.165Z,12.40
2022-10-17T19:05:05.071Z,12.35
2022-10-17T19:08:08.622Z,12.31
2022-10-17T19:11:17.198Z,12.27
2022-10-17T19:14:22.316Z,12.21
2022-10-17T19:17:26.246Z,12.11
2022-10-17T19:20:34.284Z,12.06
2022-10-17T19:23:54.089Z,12.01
2022-10-17T19:27:09.032Z,11.96
2022-10-17T19:30:26.509Z,11.95
2022-10-17T19:33:37.825Z,11.91
2022-10-17T19:36:42.031Z,11.81
2022-10-17T19:39:48.232Z,11.79
2022-10-17T19:42:53.067Z,11.74
2022-10-17T19:46:02.597Z,11.69
2022-10-17T19:49:18.370Z,11.60
2022-10-17T19:52:23.215Z,11.51
2022-10-17T19:55:26.466Z,11.49
2022-10-17T19:58:44.385Z,11.44
2022-10-17T20:01:51.327Z,11.44
2022-10-17T20:05:13.787Z,11.41
2022-10-17T20:08:20.169Z,11.34
2022-10-17T20:11:29.457Z,11.28
2022-10-17T20:14:41.037Z,11.18
2022-10-17T20:17:46.101Z,11.17
2022-10-17T20:20:49.876Z,11.15
2022-10-17T20:23:56.076Z,11.09
2022-10-17T20:27:03.150Z,11.08
2022-10-17T20:30:08.320Z,11.08
2022-10-17T20:33:31.718Z,11.11
2022-10-17T20:36:39.080Z,11.14
2022-10-17T20:39:42.950Z,11.11
2022-10-17T20:42:46.844Z,11.09
2022-10-17T20:45:51.138Z,11.04
2022-10-17T20:49:12.572Z,10.99
2022-10-17T20:53:31.493Z,10.94
2022-10-17T20:56:34.320Z,10.89
2022-10-17T20:59:38.881Z,10.81
2022-10-17T21:02:41.901Z,10.73
2022-10-17T21:05:45.652Z,10.69
2022-10-17T21:08:57.245Z,10.69
2022-10-17T21:12:02.751Z,10.62
2022-10-17T21:15:09.974Z,10.53
2022-10-17T21:18:12.771Z,10.49
2022-10-17T21:21:29.614Z,10.47
2022-10-17T21:24:32.259Z,10.48
2022-10-17T21:27:35.790Z,10.42
2022-10-17T21:30:39.557Z,10.38
2022-10-17T21:33:52.846Z,10.34
2022-10-17T21:36:55.543Z,10.33
2022-10-17T21:39:59.575Z,10.34
2022-10-17T21:43:03.192Z,10.27
2022-10-17T21:46:18.267Z,10.21
2022-10-17T21:49:24.664Z,10.14
2022-10-17T21:52:28.209Z,10.13
2022-10-17T21:55:31.489Z,10.10
2022-10-17T21:58:34.504Z,10.07
2022-10-17T22:01:43.120Z,10.05
2022-10-17T22:04:46.265Z,9.99
2022-10-17T22:07:49.023Z,10.01
2022-10-17T22:10:52.666Z,9.98
2022-10-17T22:14:00.547Z,9.97
2022-10-17T22:17:06.187Z,10.00
2022-10-17T22:20:14.005Z,10.00
2022-10-17T22:23:19.114Z,9.97
2022-10-17T22:26:22.093Z,9.93
2022-10-17T22:29:26.323Z,9.91
2022-10-17T22:32:28.984Z,9.91
2022-10-17T22:35:32.007Z,9.92
2022-10-17T22:38:35.985Z,9.92
2022-10-17T22:41:39.607Z,9.87
2022-10-17T22:44:42.352Z,9.78
2022-10-17T22:47:45.272Z,9.73
2022-10-17T22:50:50.443Z,9.65
2022-10-17T22:53:53.465Z,9.60
2022-10-17T22:56:56.724Z,9.58
2022-10-17T23:00:00.436Z,9.57
2022-10-17T23:03:03.592Z,9.58
2022-10-17T23:06:06.844Z,9.54
2022-10-17T23:09:13.194Z,9.56
2022-10-17T23:12:16.890Z,9.52
2022-10-17T23:15:19.534Z,9.48
2022-10-17T23:18:23.628Z,9.44
2022-10-17T23:21:28.120Z,9.40
2022-10-17T23:24:33.736Z,9.36
2022-10-17T23:27:36.367Z,9.28
2022-10-17T23:30:40.699Z,9.20
2022-10-17T23:33:47.430Z,9.16
2022-10-17T23:36:56.774Z,9.15
2022-10-17T23:40:01.255Z,9.16
2022-10-17T23:43:06.310Z,9.14
2022-10-17T23:46:11.556Z,9.10
2022-10-17T23:49:14.988Z,9.05
2022-10-17T23:52:17.862Z,9.03
2022-10-17T23:55:21.201Z,9.02
2022-10-17T23:58:24.194Z,9.02
